Airfield :
LOGIN :

Register | Disclaimer

   EN    FR    IT 

 










Legend :    VFR   Marginal VFR   IFR   Intensive IFR   Very Intensive IFR
Visi :
Ceiling :
>= 8 km
>= 3000ft
5 to 8 km
1000 to 3000 ft
1500m to 5 km
500 to 1000 ft
800 to 1500m
200 to 500 ft
< 800m
< 200 ft
Symbols :   Thunderstorms  Fog  Heavy snow  Heavy precipitations  Wind > 20 kt
SIGMETs :     Misc.  Thunderstorms  Icing  Turbulence  Mountain Waves  Volcanic Ashes






- Airport Elevation : 1306 ft
- IATA code : ACH


LSZR - Alten Rhein

CURRENT METAR :
  • 211550Z VRB01KT 9999 BKN022 06/01 Q1009 NOSIG RMK K

EXPIRED METARs :
  • 211520Z VRB02KT 9999 BKN022 06/02 Q1009 NOSIG RMK K
  • 211450Z 24004KT 200V280 9999 BKN019 06/02 Q1009 NOSIG RMK J
  • 211420Z 24004KT 200V280 9999 BKN019 06/02 Q1009 NOSIG RMK J
  • 211350Z VRB03KT 9999 BKN016 06/02 Q1009 NOSIG RMK I
  • 211320Z VRB03KT 9999 BKN016 06/02 Q1009 NOSIG RMK I

TAF TAF LSZR
Valid from the 21 at 15:00 until the 22 at 00:00 UTC


211425Z 2115/2124 VRB03KT 9999 BKN016
BECMG 2116/2119 4000 BR OVC012
PROB40 2119/2124 OVC009
ATIS : +41 71 858 51 66



MET'MAP, your aeronautical weather chart ! - Copyright ORBIFLY December 2007 - Disclaimer

ORBIFLY MET'MAP TEAM :

Programming & Development : Alexandra Zaïnal
Concept & Development : Baudouin d'Aumeries
Co-Development & Prog : Marc-Olivier Méhu
Technical & hardware support : Manuel Goepfert

Contact : metmap@orbifly.com




SOURCES & CREDITS :

   NOAA